Terminal Aerodrome Forecast
Issued by NWS

Home | Current Version | Previous Version | Graphics & Text | Print | Product List | Glossary On
Versions: 1 2 3 4 5 6 7 8 9 10 11 12 13 14 15 16 17 18 19 20 21 22 23 24 25 26 27 28 29
000
FTUS43 KTOP 240100 AAA
TAFFOE
TAF AMD
KFOE 240159Z 2402/2424 09010KT P6SM VCSH BKN050 BKN100
     FM240400 09014KT 5SM SHRA BR VCTS OVC025CB
     FM241200 12011KT 2SM -DZ BR OVC006
     FM242000 28011KT 6SM BR BKN020=

USA.gov is the U.S. government's official web portal to all federal, state and local government web resources and services.